sensor_id;sensor_type;location;lat;lon;timestamp;P1;durP1;ratioP1;P2;durP2;ratioP2
20122;SDS011;10222;50.848;4.336;2022-09-14T00:01:41;3.43;;;2.60;;
20122;SDS011;10222;50.848;4.336;2022-09-14T00:04:18;6.40;;;3.13;;
20122;SDS011;10222;50.848;4.336;2022-09-14T00:06:44;4.43;;;2.93;;
20122;SDS011;10222;50.848;4.336;2022-09-14T00:09:21;4.43;;;2.60;;
20122;SDS011;10222;50.848;4.336;2022-09-14T00:11:47;5.43;;;3.07;;
20122;SDS011;10222;50.848;4.336;2022-09-14T00:14:16;3.33;;;2.60;;
20122;SDS011;10222;50.848;4.336;2022-09-14T00:16:45;2.93;;;2.53;;
20122;SDS011;10222;50.848;4.336;2022-09-14T00:19:22;3.87;;;2.53;;
20122;SDS011;10222;50.848;4.336;2022-09-14T00:21:50;2.43;;;2.03;;
20122;SDS011;10222;50.848;4.336;2022-09-14T00:24:19;2.53;;;2.03;;
20122;SDS011;10222;50.848;4.336;2022-09-14T00:26:49;3.07;;;2.20;;
20122;SDS011;10222;50.848;4.336;2022-09-14T00:31:47;2.83;;;2.00;;
20122;SDS011;10222;50.848;4.336;2022-09-14T00:36:46;4.00;;;2.50;;
20122;SDS011;10222;50.848;4.336;2022-09-14T00:41:46;2.90;;;1.80;;
20122;SDS011;10222;50.848;4.336;2022-09-14T00:46:46;2.57;;;2.17;;
20122;SDS011;10222;50.848;4.336;2022-09-14T00:54:36;3.67;;;1.90;;
20122;SDS011;10222;50.848;4.336;2022-09-14T00:57:03;2.60;;;1.90;;
20122;SDS011;10222;50.848;4.336;2022-09-14T01:02:04;2.73;;;1.80;;
20122;SDS011;10222;50.848;4.336;2022-09-14T01:04:31;2.43;;;1.73;;
20122;SDS011;10222;50.848;4.336;2022-09-14T01:09:46;2.33;;;1.83;;
20122;SDS011;10222;50.848;4.336;2022-09-14T01:12:24;3.97;;;1.97;;
20122;SDS011;10222;50.848;4.336;2022-09-14T01:23:35;4.07;;;1.80;;
20122;SDS011;10222;50.848;4.336;2022-09-14T01:29:11;2.47;;;1.60;;
20122;SDS011;10222;50.848;4.336;2022-09-14T01:34:25;2.00;;;1.53;;
20122;SDS011;10222;50.848;4.336;2022-09-14T01:36:58;3.97;;;2.03;;
20122;SDS011;10222;50.848;4.336;2022-09-14T01:39:26;3.23;;;1.37;;
20122;SDS011;10222;50.848;4.336;2022-09-14T01:41:57;4.03;;;1.50;;
20122;SDS011;10222;50.848;4.336;2022-09-14T01:44:32;1.47;;;1.23;;
20122;SDS011;10222;50.848;4.336;2022-09-14T01:47:05;2.47;;;1.20;;
20122;SDS011;10222;50.848;4.336;2022-09-14T01:49:44;4.27;;;1.43;;
20122;SDS011;10222;50.848;4.336;2022-09-14T01:52:19;4.20;;;1.97;;
20122;SDS011;10222;50.848;4.336;2022-09-14T01:55:05;3.73;;;2.30;;
20122;SDS011;10222;50.848;4.336;2022-09-14T01:58:16;3.73;;;1.73;;
20122;SDS011;10222;50.848;4.336;2022-09-14T02:00:23;2.37;;;1.70;;
20122;SDS011;10222;50.848;4.336;2022-09-14T02:02:52;1.27;;;1.13;;
20122;SDS011;10222;50.848;4.336;2022-09-14T02:08:08;5.97;;;1.57;;
20122;SDS011;10222;50.848;4.336;2022-09-14T02:10:34;1.87;;;1.40;;
20122;SDS011;10222;50.848;4.336;2022-09-14T02:13:03;2.93;;;1.60;;
20122;SDS011;10222;50.848;4.336;2022-09-14T02:15:34;3.97;;;1.90;;
20122;SDS011;10222;50.848;4.336;2022-09-14T02:18:03;2.83;;;1.77;;
20122;SDS011;10222;50.848;4.336;2022-09-14T02:20:39;3.23;;;1.77;;
20122;SDS011;10222;50.848;4.336;2022-09-14T02:25:38;2.43;;;1.50;;
20122;SDS011;10222;50.848;4.336;2022-09-14T02:28:06;1.93;;;1.63;;
20122;SDS011;10222;50.848;4.336;2022-09-14T02:36:23;4.17;;;2.10;;
20122;SDS011;10222;50.848;4.336;2022-09-14T02:46:57;2.97;;;1.87;;
20122;SDS011;10222;50.848;4.336;2022-09-14T02:54:52;2.60;;;1.83;;
20122;SDS011;10222;50.848;4.336;2022-09-14T02:57:24;4.30;;;1.90;;
20122;SDS011;10222;50.848;4.336;2022-09-14T02:59:52;2.07;;;1.67;;
20122;SDS011;10222;50.848;4.336;2022-09-14T03:02:20;4.33;;;1.83;;
20122;SDS011;10222;50.848;4.336;2022-09-14T03:04:46;3.43;;;2.33;;
20122;SDS011;10222;50.848;4.336;2022-09-14T03:07:15;2.37;;;1.90;;
20122;SDS011;10222;50.848;4.336;2022-09-14T03:09:43;2.60;;;2.10;;
20122;SDS011;10222;50.848;4.336;2022-09-14T03:12:12;3.27;;;2.27;;
20122;SDS011;10222;50.848;4.336;2022-09-14T03:14:40;3.10;;;1.90;;
20122;SDS011;10222;50.848;4.336;2022-09-14T03:17:07;3.83;;;2.30;;
20122;SDS011;10222;50.848;4.336;2022-09-14T03:22:07;3.20;;;2.57;;
20122;SDS011;10222;50.848;4.336;2022-09-14T03:32:00;3.40;;;1.90;;
20122;SDS011;10222;50.848;4.336;2022-09-14T03:34:28;3.00;;;2.20;;
20122;SDS011;10222;50.848;4.336;2022-09-14T03:36:57;3.00;;;2.20;;
20122;SDS011;10222;50.848;4.336;2022-09-14T03:41:55;4.93;;;2.60;;
20122;SDS011;10222;50.848;4.336;2022-09-14T03:46:51;4.83;;;2.60;;
20122;SDS011;10222;50.848;4.336;2022-09-14T03:49:17;4.03;;;2.87;;
20122;SDS011;10222;50.848;4.336;2022-09-14T03:51:43;3.87;;;2.47;;
20122;SDS011;10222;50.848;4.336;2022-09-14T03:54:13;5.63;;;3.37;;
20122;SDS011;10222;50.848;4.336;2022-09-14T03:56:42;5.23;;;3.60;;
20122;SDS011;10222;50.848;4.336;2022-09-14T03:59:09;4.93;;;3.20;;
20122;SDS011;10222;50.848;4.336;2022-09-14T04:01:37;5.23;;;3.57;;
20122;SDS011;10222;50.848;4.336;2022-09-14T04:04:06;3.77;;;3.20;;
20122;SDS011;10222;50.848;4.336;2022-09-14T04:06:42;6.97;;;4.20;;
20122;SDS011;10222;50.848;4.336;2022-09-14T04:09:08;5.90;;;3.70;;
20122;SDS011;10222;50.848;4.336;2022-09-14T04:11:35;5.83;;;3.83;;
20122;SDS011;10222;50.848;4.336;2022-09-14T04:16:34;8.47;;;4.27;;
20122;SDS011;10222;50.848;4.336;2022-09-14T04:21:29;6.30;;;3.87;;
20122;SDS011;10222;50.848;4.336;2022-09-14T04:26:28;5.60;;;4.10;;
20122;SDS011;10222;50.848;4.336;2022-09-14T04:28:58;6.10;;;3.80;;
20122;SDS011;10222;50.848;4.336;2022-09-14T04:33:56;5.50;;;3.50;;
20122;SDS011;10222;50.848;4.336;2022-09-14T04:36:24;6.17;;;3.50;;
20122;SDS011;10222;50.848;4.336;2022-09-14T04:38:56;6.37;;;4.23;;
20122;SDS011;10222;50.848;4.336;2022-09-14T04:41:23;5.60;;;3.97;;
20122;SDS011;10222;50.848;4.336;2022-09-14T04:43:51;5.63;;;3.70;;
20122;SDS011;10222;50.848;4.336;2022-09-14T04:46:20;6.07;;;3.50;;
20122;SDS011;10222;50.848;4.336;2022-09-14T04:48:49;5.27;;;3.53;;
20122;SDS011;10222;50.848;4.336;2022-09-14T04:51:20;5.10;;;3.57;;
20122;SDS011;10222;50.848;4.336;2022-09-14T04:53:50;4.33;;;3.40;;
20122;SDS011;10222;50.848;4.336;2022-09-14T04:56:18;4.47;;;3.60;;
20122;SDS011;10222;50.848;4.336;2022-09-14T04:58:50;6.53;;;3.73;;
20122;SDS011;10222;50.848;4.336;2022-09-14T05:01:19;7.63;;;4.23;;
20122;SDS011;10222;50.848;4.336;2022-09-14T05:03:48;8.03;;;4.17;;
20122;SDS011;10222;50.848;4.336;2022-09-14T05:06:17;5.47;;;3.50;;
20122;SDS011;10222;50.848;4.336;2022-09-14T05:08:45;5.10;;;3.50;;
20122;SDS011;10222;50.848;4.336;2022-09-14T05:11:12;4.97;;;3.57;;
20122;SDS011;10222;50.848;4.336;2022-09-14T05:13:39;5.83;;;4.23;;
20122;SDS011;10222;50.848;4.336;2022-09-14T05:16:17;5.33;;;3.83;;
20122;SDS011;10222;50.848;4.336;2022-09-14T05:18:46;6.00;;;4.20;;
20122;SDS011;10222;50.848;4.336;2022-09-14T05:23:42;7.27;;;4.13;;
20122;SDS011;10222;50.848;4.336;2022-09-14T05:28:41;5.80;;;4.37;;
20122;SDS011;10222;50.848;4.336;2022-09-14T05:33:40;5.60;;;4.50;;
20122;SDS011;10222;50.848;4.336;2022-09-14T05:36:12;7.90;;;5.83;;
20122;SDS011;10222;50.848;4.336;2022-09-14T05:41:11;6.40;;;4.10;;
20122;SDS011;10222;50.848;4.336;2022-09-14T05:43:37;8.67;;;5.47;;
20122;SDS011;10222;50.848;4.336;2022-09-14T05:46:04;7.43;;;5.07;;
20122;SDS011;10222;50.848;4.336;2022-09-14T05:48:31;8.80;;;5.77;;
20122;SDS011;10222;50.848;4.336;2022-09-14T05:51:01;7.00;;;5.13;;
20122;SDS011;10222;50.848;4.336;2022-09-14T05:53:28;7.67;;;5.17;;
20122;SDS011;10222;50.848;4.336;2022-09-14T05:56:01;7.93;;;6.03;;
20122;SDS011;10222;50.848;4.336;2022-09-14T05:58:28;7.00;;;4.97;;
20122;SDS011;10222;50.848;4.336;2022-09-14T06:00:54;8.50;;;5.33;;
20122;SDS011;10222;50.848;4.336;2022-09-14T06:03:21;7.53;;;5.13;;
20122;SDS011;10222;50.848;4.336;2022-09-14T06:05:47;7.20;;;5.20;;
20122;SDS011;10222;50.848;4.336;2022-09-14T06:08:13;6.33;;;5.00;;
20122;SDS011;10222;50.848;4.336;2022-09-14T06:10:39;8.97;;;6.00;;
20122;SDS011;10222;50.848;4.336;2022-09-14T06:13:05;7.97;;;5.90;;
20122;SDS011;10222;50.848;4.336;2022-09-14T06:15:32;8.43;;;5.40;;
20122;SDS011;10222;50.848;4.336;2022-09-14T06:17:59;9.37;;;5.87;;
20122;SDS011;10222;50.848;4.336;2022-09-14T06:20:28;8.97;;;5.77;;
20122;SDS011;10222;50.848;4.336;2022-09-14T06:22:54;8.30;;;5.47;;
20122;SDS011;10222;50.848;4.336;2022-09-14T06:25:22;8.53;;;5.97;;
20122;SDS011;10222;50.848;4.336;2022-09-14T06:27:51;10.63;;;5.73;;
20122;SDS011;10222;50.848;4.336;2022-09-14T06:30:21;7.03;;;5.80;;
20122;SDS011;10222;50.848;4.336;2022-09-14T06:35:16;9.77;;;6.87;;
20122;SDS011;10222;50.848;4.336;2022-09-14T06:37:42;9.00;;;6.50;;
20122;SDS011;10222;50.848;4.336;2022-09-14T06:40:08;8.67;;;6.30;;
20122;SDS011;10222;50.848;4.336;2022-09-14T06:42:35;9.87;;;6.13;;
20122;SDS011;10222;50.848;4.336;2022-09-14T06:45:01;9.77;;;6.17;;
20122;SDS011;10222;50.848;4.336;2022-09-14T06:47:31;8.60;;;6.23;;
20122;SDS011;10222;50.848;4.336;2022-09-14T06:49:59;8.70;;;5.87;;
20122;SDS011;10222;50.848;4.336;2022-09-14T06:52:25;9.67;;;6.40;;
20122;SDS011;10222;50.848;4.336;2022-09-14T06:54:51;10.23;;;7.10;;
20122;SDS011;10222;50.848;4.336;2022-09-14T06:57:17;9.50;;;6.87;;
20122;SDS011;10222;50.848;4.336;2022-09-14T06:59:43;8.43;;;5.77;;
20122;SDS011;10222;50.848;4.336;2022-09-14T07:02:10;8.67;;;5.97;;
20122;SDS011;10222;50.848;4.336;2022-09-14T07:04:36;11.10;;;6.83;;
20122;SDS011;10222;50.848;4.336;2022-09-14T07:07:02;11.13;;;7.07;;
20122;SDS011;10222;50.848;4.336;2022-09-14T07:09:29;10.37;;;6.37;;
20122;SDS011;10222;50.848;4.336;2022-09-14T07:11:55;10.83;;;6.67;;
20122;SDS011;10222;50.848;4.336;2022-09-14T07:14:21;11.00;;;6.57;;
20122;SDS011;10222;50.848;4.336;2022-09-14T07:16:47;10.30;;;6.50;;
20122;SDS011;10222;50.848;4.336;2022-09-14T07:19:13;11.53;;;8.03;;
20122;SDS011;10222;50.848;4.336;2022-09-14T07:21:40;8.97;;;6.40;;
20122;SDS011;10222;50.848;4.336;2022-09-14T07:24:06;9.57;;;6.63;;
20122;SDS011;10222;50.848;4.336;2022-09-14T07:26:33;11.00;;;6.57;;
20122;SDS011;10222;50.848;4.336;2022-09-14T07:29:03;9.57;;;5.83;;
20122;SDS011;10222;50.848;4.336;2022-09-14T07:31:31;9.60;;;6.40;;
20122;SDS011;10222;50.848;4.336;2022-09-14T07:34:02;9.40;;;6.37;;
20122;SDS011;10222;50.848;4.336;2022-09-14T07:36:29;9.63;;;6.60;;
20122;SDS011;10222;50.848;4.336;2022-09-14T07:38:55;11.03;;;6.93;;
20122;SDS011;10222;50.848;4.336;2022-09-14T07:41:22;7.93;;;5.50;;
20122;SDS011;10222;50.848;4.336;2022-09-14T07:43:53;11.53;;;6.33;;
20122;SDS011;10222;50.848;4.336;2022-09-14T07:46:19;10.73;;;6.57;;
20122;SDS011;10222;50.848;4.336;2022-09-14T07:48:46;8.87;;;5.57;;
20122;SDS011;10222;50.848;4.336;2022-09-14T07:51:12;8.37;;;5.97;;
20122;SDS011;10222;50.848;4.336;2022-09-14T07:53:40;8.93;;;6.07;;
20122;SDS011;10222;50.848;4.336;2022-09-14T07:56:07;10.00;;;6.00;;
20122;SDS011;10222;50.848;4.336;2022-09-14T07:58:33;8.50;;;5.93;;
20122;SDS011;10222;50.848;4.336;2022-09-14T08:01:00;8.47;;;5.57;;
20122;SDS011;10222;50.848;4.336;2022-09-14T08:03:27;10.37;;;6.43;;
20122;SDS011;10222;50.848;4.336;2022-09-14T08:06:01;9.63;;;5.97;;
20122;SDS011;10222;50.848;4.336;2022-09-14T08:08:31;9.43;;;6.00;;
20122;SDS011;10222;50.848;4.336;2022-09-14T08:13:30;9.03;;;6.47;;
20122;SDS011;10222;50.848;4.336;2022-09-14T08:15:56;8.73;;;5.70;;
20122;SDS011;10222;50.848;4.336;2022-09-14T08:18:24;8.47;;;5.47;;
20122;SDS011;10222;50.848;4.336;2022-09-14T08:20:50;8.93;;;6.53;;
20122;SDS011;10222;50.848;4.336;2022-09-14T08:23:17;8.27;;;6.00;;
20122;SDS011;10222;50.848;4.336;2022-09-14T08:25:43;7.37;;;5.20;;
20122;SDS011;10222;50.848;4.336;2022-09-14T08:28:09;7.47;;;5.23;;
20122;SDS011;10222;50.848;4.336;2022-09-14T08:30:35;9.40;;;5.20;;
20122;SDS011;10222;50.848;4.336;2022-09-14T08:33:01;8.23;;;5.97;;
20122;SDS011;10222;50.848;4.336;2022-09-14T08:35:27;8.37;;;5.40;;
20122;SDS011;10222;50.848;4.336;2022-09-14T08:37:53;8.07;;;5.80;;
20122;SDS011;10222;50.848;4.336;2022-09-14T08:40:19;7.83;;;5.47;;
20122;SDS011;10222;50.848;4.336;2022-09-14T08:42:46;9.40;;;5.60;;
20122;SDS011;10222;50.848;4.336;2022-09-14T08:45:14;8.10;;;5.37;;
20122;SDS011;10222;50.848;4.336;2022-09-14T08:47:41;9.70;;;5.90;;
20122;SDS011;10222;50.848;4.336;2022-09-14T08:50:12;7.93;;;5.90;;
20122;SDS011;10222;50.848;4.336;2022-09-14T08:52:42;9.17;;;6.07;;
20122;SDS011;10222;50.848;4.336;2022-09-14T08:55:32;7.60;;;5.80;;
20122;SDS011;10222;50.848;4.336;2022-09-14T09:00:22;8.90;;;6.27;;
20122;SDS011;10222;50.848;4.336;2022-09-14T09:05:35;8.13;;;5.27;;
20122;SDS011;10222;50.848;4.336;2022-09-14T09:08:07;10.40;;;5.80;;
20122;SDS011;10222;50.848;4.336;2022-09-14T09:10:36;9.10;;;5.47;;
20122;SDS011;10222;50.848;4.336;2022-09-14T09:13:03;7.87;;;5.13;;
20122;SDS011;10222;50.848;4.336;2022-09-14T09:15:31;7.43;;;4.73;;
20122;SDS011;10222;50.848;4.336;2022-09-14T09:18:04;7.60;;;4.97;;
20122;SDS011;10222;50.848;4.336;2022-09-14T09:20:32;6.07;;;4.30;;
20122;SDS011;10222;50.848;4.336;2022-09-14T09:23:03;5.90;;;4.47;;
20122;SDS011;10222;50.848;4.336;2022-09-14T09:25:34;7.17;;;4.90;;
20122;SDS011;10222;50.848;4.336;2022-09-14T09:28:07;7.17;;;5.43;;
20122;SDS011;10222;50.848;4.336;2022-09-14T09:30:34;8.67;;;5.77;;
20122;SDS011;10222;50.848;4.336;2022-09-14T09:33:00;7.63;;;4.80;;
20122;SDS011;10222;50.848;4.336;2022-09-14T09:35:26;7.00;;;4.97;;
20122;SDS011;10222;50.848;4.336;2022-09-14T09:37:53;8.43;;;6.03;;
20122;SDS011;10222;50.848;4.336;2022-09-14T09:40:24;9.17;;;5.43;;
20122;SDS011;10222;50.848;4.336;2022-09-14T09:43:06;9.87;;;7.30;;
20122;SDS011;10222;50.848;4.336;2022-09-14T09:46:06;9.30;;;6.57;;
20122;SDS011;10222;50.848;4.336;2022-09-14T09:48:30;7.90;;;5.77;;
20122;SDS011;10222;50.848;4.336;2022-09-14T09:51:01;9.37;;;6.40;;
20122;SDS011;10222;50.848;4.336;2022-09-14T09:53:28;10.50;;;6.63;;
20122;SDS011;10222;50.848;4.336;2022-09-14T09:55:54;8.40;;;5.63;;
20122;SDS011;10222;50.848;4.336;2022-09-14T10:00:54;8.70;;;6.00;;
20122;SDS011;10222;50.848;4.336;2022-09-14T10:03:26;9.63;;;5.87;;
20122;SDS011;10222;50.848;4.336;2022-09-14T10:05:59;8.50;;;6.07;;
20122;SDS011;10222;50.848;4.336;2022-09-14T10:08:27;9.90;;;6.17;;
20122;SDS011;10222;50.848;4.336;2022-09-14T10:10:58;11.47;;;6.80;;
20122;SDS011;10222;50.848;4.336;2022-09-14T10:13:33;12.30;;;6.40;;
20122;SDS011;10222;50.848;4.336;2022-09-14T10:16:04;9.83;;;6.07;;
20122;SDS011;10222;50.848;4.336;2022-09-14T10:18:31;8.10;;;5.67;;
20122;SDS011;10222;50.848;4.336;2022-09-14T10:23:24;8.70;;;6.03;;
20122;SDS011;10222;50.848;4.336;2022-09-14T10:26:16;10.17;;;5.67;;
20122;SDS011;10222;50.848;4.336;2022-09-14T10:31:07;8.17;;;6.17;;
20122;SDS011;10222;50.848;4.336;2022-09-14T10:33:37;9.20;;;6.50;;
20122;SDS011;10222;50.848;4.336;2022-09-14T10:36:17;11.77;;;6.93;;
20122;SDS011;10222;50.848;4.336;2022-09-14T10:39:30;10.03;;;6.77;;
20122;SDS011;10222;50.848;4.336;2022-09-14T10:41:49;10.57;;;6.60;;
20122;SDS011;10222;50.848;4.336;2022-09-14T10:44:38;9.77;;;6.47;;
20122;SDS011;10222;50.848;4.336;2022-09-14T10:49:35;11.43;;;7.23;;
20122;SDS011;10222;50.848;4.336;2022-09-14T10:52:13;10.60;;;7.07;;
20122;SDS011;10222;50.848;4.336;2022-09-14T10:57:22;9.23;;;5.83;;
20122;SDS011;10222;50.848;4.336;2022-09-14T11:02:26;8.27;;;6.20;;
20122;SDS011;10222;50.848;4.336;2022-09-14T11:15:19;7.63;;;6.00;;
20122;SDS011;10222;50.848;4.336;2022-09-14T11:17:53;8.90;;;5.60;;
20122;SDS011;10222;50.848;4.336;2022-09-14T11:23:24;8.00;;;5.33;;
20122;SDS011;10222;50.848;4.336;2022-09-14T11:25:59;7.87;;;5.97;;
20122;SDS011;10222;50.848;4.336;2022-09-14T11:28:29;8.40;;;5.97;;
20122;SDS011;10222;50.848;4.336;2022-09-14T11:31:04;8.47;;;6.17;;
20122;SDS011;10222;50.848;4.336;2022-09-14T11:33:35;7.63;;;5.43;;
20122;SDS011;10222;50.848;4.336;2022-09-14T11:36:08;9.00;;;5.30;;
20122;SDS011;10222;50.848;4.336;2022-09-14T11:38:42;6.77;;;5.10;;
20122;SDS011;10222;50.848;4.336;2022-09-14T11:41:20;8.97;;;5.83;;
20122;SDS011;10222;50.848;4.336;2022-09-14T11:46:16;6.23;;;5.00;;
20122;SDS011;10222;50.848;4.336;2022-09-14T11:48:48;6.83;;;4.80;;
20122;SDS011;10222;50.848;4.336;2022-09-14T11:51:21;7.17;;;4.73;;
20122;SDS011;10222;50.848;4.336;2022-09-14T11:53:51;6.77;;;4.80;;
20122;SDS011;10222;50.848;4.336;2022-09-14T11:56:20;6.10;;;4.33;;
20122;SDS011;10222;50.848;4.336;2022-09-14T11:58:57;7.43;;;4.40;;
20122;SDS011;10222;50.848;4.336;2022-09-14T12:01:31;6.83;;;5.30;;
20122;SDS011;10222;50.848;4.336;2022-09-14T12:11:46;6.97;;;4.97;;
20122;SDS011;10222;50.848;4.336;2022-09-14T12:19:30;6.10;;;4.60;;
20122;SDS011;10222;50.848;4.336;2022-09-14T12:22:42;5.40;;;4.17;;
20122;SDS011;10222;50.848;4.336;2022-09-14T12:24:42;5.53;;;4.23;;
20122;SDS011;10222;50.848;4.336;2022-09-14T12:27:19;5.43;;;4.10;;
20122;SDS011;10222;50.848;4.336;2022-09-14T12:29:46;7.07;;;5.33;;
20122;SDS011;10222;50.848;4.336;2022-09-14T12:32:26;5.93;;;4.37;;
20122;SDS011;10222;50.848;4.336;2022-09-14T12:37:38;6.63;;;5.07;;
20122;SDS011;10222;50.848;4.336;2022-09-14T12:40:37;7.60;;;5.07;;
20122;SDS011;10222;50.848;4.336;2022-09-14T12:45:49;6.27;;;4.80;;
20122;SDS011;10222;50.848;4.336;2022-09-14T12:51:10;5.90;;;4.53;;
20122;SDS011;10222;50.848;4.336;2022-09-14T12:53:38;8.43;;;4.90;;
20122;SDS011;10222;50.848;4.336;2022-09-14T12:56:11;6.70;;;4.67;;
20122;SDS011;10222;50.848;4.336;2022-09-14T12:58:55;6.00;;;4.57;;
20122;SDS011;10222;50.848;4.336;2022-09-14T13:01:33;7.13;;;5.20;;
20122;SDS011;10222;50.848;4.336;2022-09-14T13:04:01;6.83;;;4.83;;
20122;SDS011;10222;50.848;4.336;2022-09-14T13:06:49;7.27;;;5.07;;
20122;SDS011;10222;50.848;4.336;2022-09-14T13:09:18;6.70;;;5.20;;
20122;SDS011;10222;50.848;4.336;2022-09-14T13:11:45;7.70;;;5.20;;
20122;SDS011;10222;50.848;4.336;2022-09-14T13:14:17;7.70;;;5.23;;
20122;SDS011;10222;50.848;4.336;2022-09-14T13:16:44;9.03;;;5.77;;
20122;SDS011;10222;50.848;4.336;2022-09-14T13:19:21;7.60;;;5.47;;
20122;SDS011;10222;50.848;4.336;2022-09-14T13:21:49;7.97;;;6.30;;
20122;SDS011;10222;50.848;4.336;2022-09-14T13:26:47;6.23;;;4.90;;
20122;SDS011;10222;50.848;4.336;2022-09-14T13:29:13;6.20;;;4.80;;
20122;SDS011;10222;50.848;4.336;2022-09-14T13:31:40;6.70;;;5.37;;
20122;SDS011;10222;50.848;4.336;2022-09-14T13:34:15;7.27;;;5.40;;
20122;SDS011;10222;50.848;4.336;2022-09-14T13:36:42;8.67;;;5.77;;
20122;SDS011;10222;50.848;4.336;2022-09-14T13:39:48;7.20;;;5.70;;
20122;SDS011;10222;50.848;4.336;2022-09-14T13:42:01;7.80;;;4.80;;
20122;SDS011;10222;50.848;4.336;2022-09-14T13:44:46;8.80;;;5.50;;
20122;SDS011;10222;50.848;4.336;2022-09-14T13:47:23;9.13;;;5.93;;
20122;SDS011;10222;50.848;4.336;2022-09-14T13:49:50;9.47;;;6.90;;
20122;SDS011;10222;50.848;4.336;2022-09-14T13:54:52;8.97;;;6.53;;
20122;SDS011;10222;50.848;4.336;2022-09-14T13:57:19;8.17;;;5.70;;
20122;SDS011;10222;50.848;4.336;2022-09-14T14:00:05;9.17;;;6.50;;
20122;SDS011;10222;50.848;4.336;2022-09-14T14:02:33;9.57;;;6.90;;
20122;SDS011;10222;50.848;4.336;2022-09-14T14:05:03;9.73;;;6.60;;
20122;SDS011;10222;50.848;4.336;2022-09-14T14:07:31;9.50;;;7.07;;
20122;SDS011;10222;50.848;4.336;2022-09-14T14:09:58;10.67;;;6.07;;
20122;SDS011;10222;50.848;4.336;2022-09-14T14:12:25;9.97;;;7.07;;
20122;SDS011;10222;50.848;4.336;2022-09-14T14:14:55;8.70;;;6.03;;
20122;SDS011;10222;50.848;4.336;2022-09-14T14:19:49;9.87;;;6.90;;
20122;SDS011;10222;50.848;4.336;2022-09-14T14:22:17;8.67;;;5.70;;
20122;SDS011;10222;50.848;4.336;2022-09-14T14:24:44;6.13;;;4.73;;
20122;SDS011;10222;50.848;4.336;2022-09-14T14:27:30;7.03;;;4.80;;
20122;SDS011;10222;50.848;4.336;2022-09-14T14:29:57;4.93;;;3.83;;
20122;SDS011;10222;50.848;4.336;2022-09-14T14:32:23;6.73;;;4.60;;
20122;SDS011;10222;50.848;4.336;2022-09-14T14:34:49;6.93;;;4.37;;
20122;SDS011;10222;50.848;4.336;2022-09-14T14:37:19;6.13;;;4.53;;
20122;SDS011;10222;50.848;4.336;2022-09-14T14:39:49;4.67;;;3.77;;
20122;SDS011;10222;50.848;4.336;2022-09-14T14:42:15;6.07;;;3.97;;
20122;SDS011;10222;50.848;4.336;2022-09-14T14:44:41;6.57;;;4.47;;
20122;SDS011;10222;50.848;4.336;2022-09-14T14:47:11;6.67;;;4.47;;
20122;SDS011;10222;50.848;4.336;2022-09-14T14:49:41;7.10;;;4.33;;
20122;SDS011;10222;50.848;4.336;2022-09-14T14:52:14;5.90;;;4.10;;
20122;SDS011;10222;50.848;4.336;2022-09-14T14:55:03;5.20;;;4.20;;
20122;SDS011;10222;50.848;4.336;2022-09-14T14:57:36;6.00;;;3.87;;
20122;SDS011;10222;50.848;4.336;2022-09-14T15:00:11;6.63;;;4.40;;
20122;SDS011;10222;50.848;4.336;2022-09-14T15:02:38;6.20;;;4.57;;
20122;SDS011;10222;50.848;4.336;2022-09-14T15:05:04;6.23;;;4.20;;
20122;SDS011;10222;50.848;4.336;2022-09-14T15:07:30;6.57;;;4.67;;
20122;SDS011;10222;50.848;4.336;2022-09-14T15:09:56;5.53;;;4.17;;
20122;SDS011;10222;50.848;4.336;2022-09-14T15:12:23;5.10;;;3.63;;
20122;SDS011;10222;50.848;4.336;2022-09-14T15:14:49;5.93;;;3.90;;
20122;SDS011;10222;50.848;4.336;2022-09-14T15:17:15;5.60;;;3.70;;
20122;SDS011;10222;50.848;4.336;2022-09-14T15:19:42;4.33;;;3.37;;
20122;SDS011;10222;50.848;4.336;2022-09-14T15:22:12;5.20;;;3.43;;
20122;SDS011;10222;50.848;4.336;2022-09-14T15:24:38;4.97;;;3.87;;
20122;SDS011;10222;50.848;4.336;2022-09-14T15:27:04;6.43;;;4.30;;
20122;SDS011;10222;50.848;4.336;2022-09-14T15:29:31;7.30;;;4.17;;
20122;SDS011;10222;50.848;4.336;2022-09-14T15:31:59;4.93;;;3.50;;
20122;SDS011;10222;50.848;4.336;2022-09-14T15:34:25;8.07;;;3.87;;
20122;SDS011;10222;50.848;4.336;2022-09-14T15:36:51;6.63;;;3.93;;
20122;SDS011;10222;50.848;4.336;2022-09-14T15:39:21;4.80;;;3.67;;
20122;SDS011;10222;50.848;4.336;2022-09-14T15:41:48;5.77;;;3.67;;
20122;SDS011;10222;50.848;4.336;2022-09-14T15:44:14;6.80;;;3.97;;
20122;SDS011;10222;50.848;4.336;2022-09-14T15:46:41;5.77;;;4.03;;
20122;SDS011;10222;50.848;4.336;2022-09-14T15:49:10;5.33;;;3.33;;
20122;SDS011;10222;50.848;4.336;2022-09-14T15:51:36;6.17;;;3.70;;
20122;SDS011;10222;50.848;4.336;2022-09-14T15:54:03;5.33;;;3.40;;
20122;SDS011;10222;50.848;4.336;2022-09-14T15:56:29;4.20;;;3.20;;
20122;SDS011;10222;50.848;4.336;2022-09-14T15:59:01;5.33;;;4.03;;
20122;SDS011;10222;50.848;4.336;2022-09-14T16:01:28;5.30;;;3.47;;
20122;SDS011;10222;50.848;4.336;2022-09-14T16:03:55;4.33;;;3.27;;
20122;SDS011;10222;50.848;4.336;2022-09-14T16:06:21;5.60;;;3.27;;
20122;SDS011;10222;50.848;4.336;2022-09-14T16:08:47;4.97;;;3.57;;
20122;SDS011;10222;50.848;4.336;2022-09-14T16:11:13;4.47;;;3.60;;
20122;SDS011;10222;50.848;4.336;2022-09-14T16:13:39;7.23;;;4.60;;
20122;SDS011;10222;50.848;4.336;2022-09-14T16:16:06;7.27;;;4.13;;
20122;SDS011;10222;50.848;4.336;2022-09-14T16:18:33;7.07;;;4.53;;
20122;SDS011;10222;50.848;4.336;2022-09-14T16:21:06;6.80;;;4.03;;
20122;SDS011;10222;50.848;4.336;2022-09-14T16:23:38;6.03;;;4.03;;
20122;SDS011;10222;50.848;4.336;2022-09-14T16:26:08;7.33;;;4.27;;
20122;SDS011;10222;50.848;4.336;2022-09-14T16:28:35;6.50;;;3.93;;
20122;SDS011;10222;50.848;4.336;2022-09-14T16:31:09;10.30;;;4.63;;
20122;SDS011;10222;50.848;4.336;2022-09-14T16:33:39;8.53;;;4.93;;
20122;SDS011;10222;50.848;4.336;2022-09-14T16:36:06;12.33;;;6.80;;
20122;SDS011;10222;50.848;4.336;2022-09-14T16:38:33;8.07;;;5.53;;
20122;SDS011;10222;50.848;4.336;2022-09-14T16:41:00;10.00;;;5.67;;
20122;SDS011;10222;50.848;4.336;2022-09-14T16:43:27;7.60;;;4.93;;
20122;SDS011;10222;50.848;4.336;2022-09-14T16:46:07;11.90;;;8.27;;
20122;SDS011;10222;50.848;4.336;2022-09-14T16:48:34;7.40;;;5.17;;
20122;SDS011;10222;50.848;4.336;2022-09-14T16:51:01;6.53;;;4.43;;
20122;SDS011;10222;50.848;4.336;2022-09-14T16:53:28;7.27;;;4.43;;
20122;SDS011;10222;50.848;4.336;2022-09-14T16:56:02;7.50;;;4.23;;
20122;SDS011;10222;50.848;4.336;2022-09-14T16:58:29;6.77;;;4.17;;
20122;SDS011;10222;50.848;4.336;2022-09-14T17:00:55;5.30;;;4.17;;
20122;SDS011;10222;50.848;4.336;2022-09-14T17:03:21;5.20;;;3.60;;
20122;SDS011;10222;50.848;4.336;2022-09-14T17:05:47;5.60;;;4.27;;
20122;SDS011;10222;50.848;4.336;2022-09-14T17:08:13;7.93;;;4.33;;
20122;SDS011;10222;50.848;4.336;2022-09-14T17:10:39;5.03;;;3.27;;
20122;SDS011;10222;50.848;4.336;2022-09-14T17:13:05;5.17;;;3.90;;
20122;SDS011;10222;50.848;4.336;2022-09-14T17:15:31;5.60;;;3.83;;
20122;SDS011;10222;50.848;4.336;2022-09-14T17:17:57;5.07;;;3.43;;
20122;SDS011;10222;50.848;4.336;2022-09-14T17:20:24;5.90;;;3.77;;
20122;SDS011;10222;50.848;4.336;2022-09-14T17:22:50;5.50;;;3.43;;
20122;SDS011;10222;50.848;4.336;2022-09-14T17:25:17;5.90;;;3.60;;
20122;SDS011;10222;50.848;4.336;2022-09-14T17:27:43;5.37;;;3.43;;
20122;SDS011;10222;50.848;4.336;2022-09-14T17:30:12;4.97;;;2.83;;
20122;SDS011;10222;50.848;4.336;2022-09-14T17:32:41;8.30;;;3.60;;
20122;SDS011;10222;50.848;4.336;2022-09-14T17:35:09;5.10;;;3.30;;
20122;SDS011;10222;50.848;4.336;2022-09-14T17:37:35;6.27;;;3.50;;
20122;SDS011;10222;50.848;4.336;2022-09-14T17:40:01;5.47;;;3.37;;
20122;SDS011;10222;50.848;4.336;2022-09-14T17:42:30;5.20;;;3.20;;
20122;SDS011;10222;50.848;4.336;2022-09-14T17:44:57;8.10;;;3.33;;